Terminal Aerodrome Forecast
Issued by NWS

Home | Current Version | Previous Version | Text Only | Print | Product List | Glossary On
Versions: 1 2 3 4 5 6 7 8 9 10 11 12 13 14
000
FTUS46 KLOX 030500
TAFWJF
TAF
KWJF 030537Z 0306/0406 24010KT P6SM SKC
     FM031000 22007KT P6SM SKC
     FM031800 23015G25KT P6SM SKC
     FM032100 22020G30KT P6SM SKC
     FM040400 23015KT P6SM SKC=

USA.gov is the U.S. government's official web portal to all federal, state and local government web resources and services.